Kezdőlap
METAR-TAF:

METAR-TAF

Repülőterek :

Valence, Franciaország

földrajzi szélesség: 44-54-58N, földrajzi hosszúság: 4-58-06E, magasság: 160 m

Jelenlegi meteorológiai megfigyelések

A jelentés 39 perccel ezelõtt készült, 12:00 UTC
Déli szél 12 kt
Hőmérséklet 15°C
Páratartalom 72%
Légköri nyomás 1011 hPa
Látótávolság 10 km, vagy több
felhőtlen 1500 m magasságban, és nincs gomolyfelhõ

METAR: LFLU 151200Z AUTO 18012KT CAVOK 15/10 Q1011

Idő: 13:39 (12:39 UTC)


TAF: hiányzik

Meteorológiai megfigyelések és előrejelzések több, mint 4000 repülőtéren (METAR és TAF jelentéseket).

A térképen piros és sárga pontok jelzik az elérhető meteorológiai állomásokat.

Mozgassa az egeret a pont fölött, hogy megjelenjen az állomás neve.

Azután kattintson az időjárási megfigyelések és előrejelzések megtekintéséhez.

A térkép megváltoztatása: kattintson a fekete keresztel jelölt zöld gombra ráközelítéshez, a vonallal jelölt zöld gombra távolításhoz, vagy a zöld nyilakra a szomszédos térképek eléréséhez.


METAR-TAF: